Time;durP1;ratioP1;P1;durP2;ratioP2;P2;SDS_P1;SDS_P2;PMS_P1;PMS_P2;Temp;Humidity;BMP_temperature;BMP_pressure;BME280_temperature;BME280_humidity;BME280_pressure;Samples;Min_cycle;Max_cycle;Signal;HPM_P1;HPM_P2
2021/05/09 00:02:20;;;;;;;2.75;1.42;;;;;;;16.95;56.64;100543.38;5075303;28;20025;-75
2021/05/09 00:04:46;;;;;;;3.08;1.50;;;;;;;16.87;57.16;100538.13;5075010;28;20024;-76
2021/05/09 00:07:12;;;;;;;1.88;1.48;;;;;;;16.70;57.43;100537.66;5074571;28;20028;-76
2021/05/09 00:09:40;;;;;;;4.32;1.80;;;;;;;16.76;57.12;100527.66;5074684;28;20031;-76
2021/05/09 00:12:08;;;;;;;1.95;1.80;;;;;;;16.86;57.14;100539.34;5075193;28;20473;-76
2021/05/09 00:14:34;;;;;;;3.42;1.83;;;;;;;16.71;57.12;100533.66;5074557;28;20034;-76
2021/05/09 00:16:59;;;;;;;1.80;1.50;;;;;;;16.70;57.23;100539.66;5074876;28;20032;-76
2021/05/09 00:19:25;;;;;;;3.15;1.67;;;;;;;16.56;58.21;100542.41;5074571;28;20036;-76
2021/05/09 00:21:53;;;;;;;3.17;1.80;;;;;;;16.59;57.97;100538.81;5074668;28;20024;-76
2021/05/09 00:24:20;;;;;;;1.88;1.52;;;;;;;16.60;58.17;100537.59;5074325;28;20033;-76
2021/05/09 00:26:46;;;;;;;1.90;1.58;;;;;;;16.44;58.35;100535.13;5074602;28;20020;-75
2021/05/09 00:29:11;;;;;;;2.22;1.55;;;;;;;16.49;58.34;100540.38;5074534;28;20417;-76
2021/05/09 00:31:39;;;;;;;4.85;1.70;;;;;;;16.55;58.66;100543.59;5074712;28;20466;-76
2021/05/09 00:34:05;;;;;;;1.90;1.52;;;;;;;16.49;58.24;100540.38;5074570;28;20059;-76
2021/05/09 00:36:30;;;;;;;2.15;1.77;;;;;;;16.34;58.78;100545.09;5074562;28;20524;-76
2021/05/09 00:38:56;;;;;;;2.65;1.80;;;;;;;16.35;59.05;100540.28;5074060;28;20054;-76
2021/05/09 00:41:21;;;;;;;2.13;1.90;;;;;;;16.41;59.24;100539.56;5074296;28;20027;-76
2021/05/09 00:43:50;;;;;;;3.72;1.67;;;;;;;16.18;59.33;100508.94;5074199;28;20050;-76
2021/05/09 00:46:15;;;;;;;1.77;1.67;;;;;;;16.32;59.32;100532.69;5074130;28;20060;-75
2021/05/09 00:48:41;;;;;;;2.65;1.55;;;;;;;16.36;59.41;100537.13;5073956;28;20055;-76
2021/05/09 00:51:07;;;;;;;2.17;1.92;;;;;;;16.43;58.80;100537.13;5073798;28;20013;-75
2021/05/09 00:53:34;;;;;;;2.13;1.80;;;;;;;16.37;59.21;100538.72;5074263;28;20032;-76
2021/05/09 00:56:04;;;;;;;2.83;1.80;;;;;;;16.34;59.40;100535.88;5073268;28;20105;-76
2021/05/09 00:58:31;;;;;;;3.40;2.10;;;;;;;16.34;59.20;100533.88;5074664;28;20029;-76
2021/05/09 01:00:59;;;;;;;2.17;1.90;;;;;;;16.28;59.40;100518.59;5057172;28;20029;-76
2021/05/09 01:03:29;;;;;;;3.13;2.00;;;;;;;16.27;59.88;100528.25;5073584;28;20028;-76
2021/05/09 01:05:56;;;;;;;2.50;1.92;;;;;;;16.28;59.61;100529.84;5074574;28;20362;-78
2021/05/09 01:08:22;;;;;;;4.10;2.03;;;;;;;16.22;59.45;100520.19;5074007;28;20020;-76
2021/05/09 01:10:50;;;;;;;3.05;2.05;;;;;;;16.33;59.29;100523.84;5072897;28;20016;-76
2021/05/09 01:13:16;;;;;;;2.85;1.85;;;;;;;16.22;59.76;100532.22;5073006;28;20025;-75
2021/05/09 01:15:42;;;;;;;5.07;2.08;;;;;;;16.26;59.80;100531.44;5073914;28;20446;-75
2021/05/09 01:18:10;;;;;;;2.60;1.90;;;;;;;16.23;59.73;100522.59;5056938;28;20024;-76
2021/05/09 01:20:36;;;;;;;3.25;2.00;;;;;;;16.18;59.98;100522.97;5073268;28;20029;-76
2021/05/09 01:23:03;;;;;;;2.53;1.73;;;;;;;16.14;59.73;100524.97;5074804;28;20021;-76
2021/05/09 01:25:29;;;;;;;2.00;1.80;;;;;;;16.08;60.09;100515.28;5073682;28;20017;-76
2021/05/09 01:27:55;;;;;;;4.72;1.90;;;;;;;16.02;59.89;100521.66;5073073;28;20370;-76
2021/05/09 01:30:21;;;;;;;4.70;2.35;;;;;;;15.93;60.07;100513.63;5074645;28;20032;-76
2021/05/09 01:32:47;;;;;;;1.67;1.58;;;;;;;16.02;60.49;100522.47;5073301;28;20458;-75
2021/05/09 01:35:15;;;;;;;2.35;1.85;;;;;;;16.04;59.93;100516.50;5073227;28;20070;-75
2021/05/09 01:37:41;;;;;;;3.28;1.90;;;;;;;15.99;60.31;100503.63;5074338;28;20107;-76
2021/05/09 01:40:10;;;;;;;1.83;1.70;;;;;;;16.10;59.72;100518.53;5074500;28;20103;-76
2021/05/09 01:42:36;;;;;;;4.82;2.28;;;;;;;16.12;59.60;100509.69;5068844;28;20111;-76
2021/05/09 01:45:03;;;;;;;3.58;1.75;;;;;;;16.05;59.23;100507.66;5072855;28;20127;-76
2021/05/09 01:47:28;;;;;;;2.70;1.98;;;;;;;16.06;59.61;100512.09;5073967;28;20028;-75
2021/05/09 01:49:57;;;;;;;3.58;1.88;;;;;;;16.08;59.58;100509.69;5073463;28;20417;-75
2021/05/09 01:52:26;;;;;;;4.93;2.13;;;;;;;16.07;59.58;100502.47;5073228;28;20058;-76
2021/05/09 01:54:51;;;;;;;2.67;1.60;;;;;;;15.89;59.85;100501.56;5072368;28;20040;-77
2021/05/09 01:57:17;;;;;;;3.20;1.80;;;;;;;15.95;59.99;100509.22;5072683;28;20027;-75
2021/05/09 01:59:44;;;;;;;3.08;1.77;;;;;;;15.94;59.98;100504.00;5073226;28;20033;-76
2021/05/09 02:02:12;;;;;;;1.77;1.60;;;;;;;15.88;60.04;100499.97;5072948;28;20381;-76
2021/05/09 02:04:40;;;;;;;1.98;1.75;;;;;;;15.86;60.20;100505.13;5073223;28;20029;-75
2021/05/09 02:07:06;;;;;;;1.88;1.60;;;;;;;15.80;60.50;100512.31;5073617;28;20025;-75
2021/05/09 02:09:34;;;;;;;2.13;1.92;;;;;;;15.77;60.71;100499.09;5072704;28;20039;-75
2021/05/09 02:12:02;;;;;;;2.92;1.65;;;;;;;15.81;60.60;100499.88;5072749;28;20024;-75
2021/05/09 02:14:30;;;;;;;1.33;1.23;;;;;;;15.68;60.99;100497.41;5073044;28;20363;-76
2021/05/09 02:16:58;;;;;;;4.07;1.70;;;;;;;15.61;61.18;100493.72;5072514;28;20537;-76
2021/05/09 02:19:26;;;;;;;1.65;1.55;;;;;;;15.59;61.15;100494.09;5072759;28;20112;-76
2021/05/09 02:21:52;;;;;;;2.03;1.70;;;;;;;15.69;60.74;100499.00;5072517;28;20025;-76
2021/05/09 02:24:19;;;;;;;2.03;1.52;;;;;;;15.71;60.64;100499.44;5076047;28;20082;-76
2021/05/09 02:26:46;;;;;;;1.70;1.60;;;;;;;15.64;61.34;100501.38;5076806;28;20032;-75
2021/05/09 02:29:11;;;;;;;3.33;2.55;;;;;;;15.58;61.14;100495.31;5077204;28;20358;-76
2021/05/09 02:31:39;;;;;;;4.55;3.25;;;;;;;15.56;61.42;100508.91;5077122;28;20031;-75
2021/05/09 02:34:07;;;;;;;5.18;4.10;;;;;;;15.44;61.54;100486.78;5076726;28;20028;-75
2021/05/09 02:36:33;;;;;;;5.93;5.35;;;;;;;15.48;61.90;100493.22;5076602;28;20459;-76
2021/05/09 02:38:58;;;;;;;10.13;9.10;;;;;;;15.48;61.64;100496.03;5076365;28;20084;-76
2021/05/09 02:41:32;;;;;;;7.22;5.75;;;;;;;15.43;61.90;100491.56;5076459;28;20017;-75
2021/05/09 02:44:02;;;;;;;4.95;4.45;;;;;;;15.40;62.18;100502.78;5076432;28;20059;-76
2021/05/09 02:46:27;;;;;;;3.50;3.20;;;;;;;15.31;61.86;100488.28;5077307;28;20029;-76
2021/05/09 02:48:53;;;;;;;3.58;2.50;;;;;;;15.37;61.61;100492.34;5076679;28;20036;-76
2021/05/09 02:51:23;;;;;;;2.17;2.03;;;;;;;15.37;61.55;100500.75;5076566;28;20064;-76
2021/05/09 02:53:52;;;;;;;3.55;2.10;;;;;;;15.23;62.16;100484.59;5076141;28;20043;-76
2021/05/09 02:56:20;;;;;;;1.80;1.70;;;;;;;15.45;61.79;100505.22;5075645;28;20048;-75
2021/05/09 02:58:48;;;;;;;2.13;1.92;;;;;;;15.45;61.61;100492.00;5077712;28;20482;-76
2021/05/09 03:01:14;;;;;;;2.50;1.52;;;;;;;15.28;62.47;100494.66;5078838;28;20031;-76
2021/05/09 03:03:40;;;;;;;5.97;1.60;;;;;;;15.29;62.82;100502.69;5077053;28;20028;-75
2021/05/09 03:06:05;;;;;;;3.88;3.03;;;;;;;15.04;62.82;100468.81;5075946;28;20028;-77
2021/05/09 03:08:33;;;;;;;2.65;2.45;;;;;;;15.21;63.47;100489.78;5077641;28;20025;-76
2021/05/09 03:10:59;;;;;;;4.35;3.70;;;;;;;15.16;63.46;100487.34;5075861;28;20111;-76
2021/05/09 03:13:27;;;;;;;3.75;3.45;;;;;;;15.17;63.61;100495.34;5075639;28;20112;-75
2021/05/09 03:15:53;;;;;;;3.05;2.60;;;;;;;15.20;63.48;100491.78;5075863;28;20028;-76
2021/05/09 03:18:20;;;;;;;3.40;2.50;;;;;;;15.12;63.83;100481.69;5077509;28;20154;-76
2021/05/09 03:20:46;;;;;;;4.72;4.10;;;;;;;15.15;64.46;100491.34;5076008;28;20117;-76
2021/05/09 03:23:14;;;;;;;10.02;9.02;;;;;;;15.15;64.58;100491.34;5075761;28;20070;-75
2021/05/09 03:25:39;;;;;;;10.98;9.98;;;;;;;15.22;64.15;100487.78;5075615;28;20209;-76
2021/05/09 03:28:07;;;;;;;8.57;7.72;;;;;;;15.24;64.28;100488.22;5075693;28;20024;-75
2021/05/09 03:30:35;;;;;;;8.02;7.22;;;;;;;15.19;64.26;100483.78;5076331;28;20450;-76
2021/05/09 03:33:04;;;;;;;14.15;12.23;;;;;;;15.15;64.41;100497.75;5077494;28;20048;-76
2021/05/09 03:35:32;;;;;;;19.27;15.52;;;;;;;15.10;64.90;100489.69;5076354;28;20036;-75
2021/05/09 03:37:58;;;;;;;8.40;7.60;;;;;;;15.09;64.42;100488.09;5079149;28;20044;-76
2021/05/09 03:40:24;;;;;;;9.90;6.55;;;;;;;15.22;64.86;100494.19;5076625;28;20439;-76
2021/05/09 03:42:50;;;;;;;5.00;4.10;;;;;;;15.24;64.76;100499.44;5075456;28;20066;-76
2021/05/09 03:45:15;;;;;;;4.65;4.05;;;;;;;15.14;64.94;100495.34;5076257;28;20029;-78
2021/05/09 03:47:44;;;;;;;5.93;4.80;;;;;;;15.20;64.82;100499.41;5074918;28;20434;-76
2021/05/09 03:50:10;;;;;;;6.30;5.38;;;;;;;15.08;65.09;100506.09;5074935;28;20111;-75
2021/05/09 03:52:37;;;;;;;8.25;5.03;;;;;;;15.13;65.14;100504.94;5074869;28;20029;-75
2021/05/09 03:55:03;;;;;;;4.47;3.22;;;;;;;15.07;65.33;100506.47;5074626;28;20047;-76
2021/05/09 03:57:29;;;;;;;3.80;3.45;;;;;;;15.10;65.47;100506.50;5075711;28;20059;-76
2021/05/09 03:59:57;;;;;;;5.05;4.55;;;;;;;15.10;65.11;100500.91;5075047;28;20518;-77
2021/05/09 04:02:22;;;;;;;6.90;5.47;;;;;;;15.06;65.15;100513.25;5075116;28;20028;-76
2021/05/09 04:04:51;;;;;;;6.20;4.75;;;;;;;15.04;65.49;100496.03;5074819;28;20119;-76
2021/05/09 04:07:19;;;;;;;7.57;5.03;;;;;;;15.00;65.33;100504.41;5074746;28;20031;-77
2021/05/09 04:09:44;;;;;;;5.25;3.10;;;;;;;15.08;64.78;100497.69;5075925;28;20446;-76
2021/05/09 04:12:10;;;;;;;3.15;2.28;;;;;;;15.21;64.56;100509.41;5074691;28;20024;-76
2021/05/09 04:14:39;;;;;;;6.35;2.38;;;;;;;15.18;64.47;100508.19;5075109;28;20034;-76
2021/05/09 04:17:07;;;;;;;2.78;2.00;;;;;;;15.16;64.24;100498.56;5074686;28;20115;-76
2021/05/09 04:19:35;;;;;;;3.33;2.38;;;;;;;15.82;62.50;100496.72;5076148;28;20355;-76
2021/05/09 04:22:03;;;;;;;1.83;1.70;;;;;;;16.55;60.42;100504.28;5074456;28;20530;-76
2021/05/09 04:24:29;;;;;;;2.50;1.80;;;;;;;17.19;57.35;100496.81;5074470;28;20016;-74
2021/05/09 04:26:55;;;;;;;2.10;1.90;;;;;;;17.82;55.70;100502.88;5074223;28;20035;-76
2021/05/09 04:29:21;;;;;;;2.92;2.40;;;;;;;18.47;53.75;100507.09;5074375;28;20352;-76
2021/05/09 04:31:49;;;;;;;2.58;1.52;;;;;;;19.01;52.12;100495.56;5074100;28;20377;-75
2021/05/09 04:34:17;;;;;;;3.13;1.92;;;;;;;19.59;50.47;100511.66;5074197;28;20024;-76
2021/05/09 04:36:46;;;;;;;2.28;1.85;;;;;;;20.05;49.12;100513.25;5074836;28;20451;-75
2021/05/09 04:39:11;;;;;;;2.97;2.58;;;;;;;20.50;47.72;100513.16;5073782;28;20075;-76
2021/05/09 04:41:39;;;;;;;1.90;1.70;;;;;;;20.87;47.08;100515.09;5075086;28;20025;-76
2021/05/09 04:44:07;;;;;;;2.95;1.70;;;;;;;21.35;45.71;100511.16;5074055;28;20024;-74
2021/05/09 04:46:33;;;;;;;3.75;1.77;;;;;;;21.76;44.97;100517.78;5073977;28;20024;-76
2021/05/09 04:49:01;;;;;;;4.15;1.80;;;;;;;22.11;44.08;100513.53;5073632;28;20114;-75
2021/05/09 04:51:27;;;;;;;2.63;2.42;;;;;;;22.51;43.38;100528.50;5073327;28;20024;-75
2021/05/09 04:53:58;;;;;;;4.43;3.15;;;;;;;22.85;42.13;100525.38;5073483;28;20025;-75
2021/05/09 04:56:23;;;;;;;4.38;3.33;;;;;;;23.25;41.28;100509.03;5072940;28;20478;-74
2021/05/09 04:58:49;;;;;;;6.10;3.28;;;;;;;23.52;40.42;100527.88;5073266;28;20027;-76
2021/05/09 05:01:14;;;;;;;5.32;3.17;;;;;;;23.94;39.96;100511.00;5073562;28;20119;-74
2021/05/09 05:03:40;;;;;;;2.80;2.60;;;;;;;24.19;39.47;100518.84;5073512;28;20054;-75
2021/05/09 05:06:06;;;;;;;4.35;2.20;;;;;;;24.37;38.50;100507.78;5073547;28;20087;-75
2021/05/09 05:08:33;;;;;;;3.35;2.10;;;;;;;24.60;38.45;100528.66;5073514;28;20477;-77
2021/05/09 05:11:00;;;;;;;2.70;1.73;;;;;;;24.79;38.00;100534.19;5074732;28;20056;-75
2021/05/09 05:13:28;;;;;;;1.75;1.65;;;;;;;25.04;37.92;100533.44;5073592;28;20107;-77
2021/05/09 05:15:56;;;;;;;2.03;1.80;;;;;;;25.04;37.50;100524.88;5072837;28;20060;-75
2021/05/09 05:18:23;;;;;;;2.83;1.83;;;;;;;25.40;36.63;100520.09;5074220;28;20021;-75
2021/05/09 05:20:51;;;;;;;2.28;1.75;;;;;;;25.85;35.26;100519.84;5073394;28;20028;-74
2021/05/09 05:23:17;;;;;;;5.18;2.30;;;;;;;25.78;35.00;100532.28;5072937;28;20020;-77
2021/05/09 05:25:43;;;;;;;2.67;1.92;;;;;;;25.73;35.41;100529.19;5056331;28;20036;-75
2021/05/09 05:28:09;;;;;;;3.80;2.30;;;;;;;25.96;35.29;100530.88;5072829;28;20070;-75
2021/05/09 05:30:35;;;;;;;4.10;2.42;;;;;;;26.45;34.43;100536.06;5073065;28;20071;-74
2021/05/09 05:33:01;;;;;;;3.42;2.50;;;;;;;26.66;33.73;100537.31;5072796;28;20082;-75
2021/05/09 05:35:28;;;;;;;3.85;2.67;;;;;;;27.03;33.34;100544.84;5072930;28;20418;-76
2021/05/09 05:37:56;;;;;;;3.53;2.67;;;;;;;26.78;32.99;100540.09;5072769;28;20017;-75
2021/05/09 05:40:26;;;;;;;2.63;2.30;;;;;;;26.76;33.94;100539.78;5072683;28;20059;-75
2021/05/09 05:42:52;;;;;;;3.70;2.47;;;;;;;27.07;33.01;100536.97;5074136;28;20061;-74
2021/05/09 05:45:18;;;;;;;2.63;2.15;;;;;;;26.94;32.34;100541.94;5073079;28;20024;-75
2021/05/09 05:47:43;;;;;;;2.55;1.90;;;;;;;26.87;33.19;100539.34;5073885;28;20027;-75
2021/05/09 05:50:10;;;;;;;4.55;2.45;;;;;;;26.92;32.50;100547.31;5072530;28;20036;-75
2021/05/09 05:52:36;;;;;;;1.92;1.77;;;;;;;26.42;32.66;100540.66;5072731;28;20336;-77
2021/05/09 05:55:02;;;;;;;3.55;1.98;;;;;;;26.30;32.40;100513.72;5071982;28;20077;-76
2021/05/09 05:57:28;;;;;;;3.10;2.20;;;;;;;26.67;32.18;100538.91;5071723;28;20069;-76
2021/05/09 05:59:53;;;;;;;2.80;2.08;;;;;;;26.89;32.21;100536.81;5073704;28;20111;-77
2021/05/09 06:02:21;;;;;;;1.92;1.65;;;;;;;26.35;32.09;100532.31;5072444;28;20020;-76
2021/05/09 06:04:47;;;;;;;4.15;1.70;;;;;;;25.01;34.63;100533.53;5073546;28;20519;-76
2021/05/09 06:07:12;;;;;;;2.03;1.73;;;;;;;25.26;34.54;100527.09;5072511;28;20032;-77
2021/05/09 06:09:39;;;;;;;2.47;1.75;;;;;;;25.77;34.03;100535.59;5072258;28;20020;-76
2021/05/09 06:12:06;;;;;;;1.63;1.52;;;;;;;25.34;34.35;100536.97;5072880;28;20024;-76
2021/05/09 06:14:33;;;;;;;3.78;2.55;;;;;;;25.23;35.22;100533.69;5055566;28;20082;-75
2021/05/09 06:16:59;;;;;;;3.22;2.40;;;;;;;25.22;35.72;100529.25;5073599;28;20017;-76
2021/05/09 06:19:24;;;;;;;2.20;2.00;;;;;;;25.51;35.35;100544.13;5072457;28;20040;-77
2021/05/09 06:21:56;;;;;;;3.45;2.30;;;;;;;25.30;36.02;100527.75;5072184;28;20028;-76
2021/05/09 06:24:21;;;;;;;3.65;2.20;;;;;;;25.67;35.51;100533.84;5072252;28;20031;-76
2021/05/09 06:26:50;;;;;;;2.15;1.90;;;;;;;26.23;34.28;100530.31;5073089;28;20025;-76
2021/05/09 06:29:18;;;;;;;3.35;1.92;;;;;;;26.54;33.04;100534.06;5072576;28;20459;-77
2021/05/09 06:31:43;;;;;;;2.47;2.00;;;;;;;26.13;33.67;100530.22;5072099;28;20431;-75
2021/05/09 06:34:09;;;;;;;2.13;1.83;;;;;;;26.47;33.30;100528.63;5072189;28;20024;-77
2021/05/09 06:36:37;;;;;;;2.20;1.85;;;;;;;27.10;32.38;100536.00;5072261;28;20017;-76
2021/05/09 06:39:04;;;;;;;2.38;1.75;;;;;;;26.36;32.92;100525.34;5071946;28;20082;-76
2021/05/09 06:41:31;;;;;;;2.15;1.75;;;;;;;26.33;33.59;100540.53;5071882;28;20024;-76
2021/05/09 06:43:59;;;;;;;4.50;2.03;;;;;;;26.64;33.30;100544.28;5073232;28;20017;-77
2021/05/09 06:46:28;;;;;;;3.53;2.08;;;;;;;26.95;32.45;100540.66;5071812;28;20024;-76
2021/05/09 06:48:53;;;;;;;4.88;1.80;;;;;;;26.71;32.90;100548.13;5072428;28;20144;-75
2021/05/09 06:51:20;;;;;;;2.13;1.90;;;;;;;26.68;32.89;100544.16;5072279;28;20043;-76
2021/05/09 06:53:48;;;;;;;3.22;1.88;;;;;;;27.52;32.13;100531.88;5073439;28;20025;-75
2021/05/09 06:56:16;;;;;;;3.40;1.70;;;;;;;28.14;30.55;100537.44;5071324;28;20045;-76
2021/05/09 06:58:42;;;;;;;2.42;1.50;;;;;;;27.93;30.65;100542.81;5071786;28;20120;-78
2021/05/09 07:01:08;;;;;;;2.55;1.88;;;;;;;28.05;30.89;100541.06;5055113;28;20119;-76
2021/05/09 07:03:33;;;;;;;3.08;2.22;;;;;;;27.96;29.39;100538.19;5073189;28;20035;-76
2021/05/09 07:05:59;;;;;;;1.83;1.67;;;;;;;28.30;29.22;100536.31;5071786;28;20077;-75
2021/05/09 07:08:25;;;;;;;1.70;1.60;;;;;;;28.23;28.74;100530.91;5071940;28;20112;-78
2021/05/09 07:10:52;;;;;;;4.40;1.75;;;;;;;27.87;29.02;100546.78;5075461;28;20386;-76
2021/05/09 07:13:20;;;;;;;1.98;1.60;;;;;;;28.51;29.25;100549.69;5077346;28;20401;-76
2021/05/09 07:15:52;;;;;;;3.75;1.92;;;;;;;28.76;27.82;100553.47;5075259;28;20025;-75
2021/05/09 07:18:22;;;;;;;2.53;1.80;;;;;;;28.73;28.23;100546.63;5077295;28;20020;-77
2021/05/09 07:20:57;;;;;;;1.63;1.40;;;;;;;27.65;28.78;100541.16;5075416;28;20366;-75
2021/05/09 07:23:31;;;;;;;5.65;1.90;;;;;;;28.19;28.99;100557.63;5074984;28;20031;-76
2021/05/09 07:25:57;;;;;;;1.65;1.55;;;;;;;28.42;28.80;100547.63;5075115;28;20024;-75
2021/05/09 07:28:23;;;;;;;4.07;1.75;;;;;;;27.61;29.16;100535.56;5075463;28;20107;-77
2021/05/09 07:30:49;;;;;;;3.10;1.48;;;;;;;28.71;28.15;100547.13;5075280;28;20036;-76
2021/05/09 07:33:15;;;;;;;4.38;1.95;;;;;;;28.78;27.52;100556.66;5075508;28;20043;-76
2021/05/09 07:35:54;;;;;;;3.90;2.63;;;;;;;28.42;27.50;100553.34;5076371;28;20028;-76
2021/05/09 07:38:19;;;;;;;2.45;1.60;;;;;;;28.57;27.88;100553.50;5075191;28;20033;-76
2021/05/09 07:40:45;;;;;;;1.98;1.75;;;;;;;28.11;28.36;100556.31;5075302;28;20021;-75
2021/05/09 07:43:14;;;;;;;3.40;1.42;;;;;;;29.27;26.87;100552.72;5074850;28;20351;-77
2021/05/09 07:45:41;;;;;;;4.97;2.78;;;;;;;28.75;27.71;100551.88;5074854;28;20094;-75
2021/05/09 07:48:09;;;;;;;3.72;2.13;;;;;;;29.16;27.23;100554.03;5076155;28;20027;-77
2021/05/09 07:50:37;;;;;;;4.75;2.17;;;;;;;28.59;27.48;100553.00;5074735;28;20097;-76
2021/05/09 07:53:03;;;;;;;4.65;2.20;;;;;;;29.00;27.68;100551.53;5074599;28;20021;-76
2021/05/09 07:55:29;;;;;;;3.63;2.55;;;;;;;29.63;26.89;100555.44;5074248;28;20032;-75
2021/05/09 07:57:56;;;;;;;4.78;2.50;;;;;;;29.34;26.89;100552.38;5075039;28;20082;-76
2021/05/09 08:00:22;;;;;;;2.60;2.30;;;;;;;29.38;26.66;100555.84;5074070;28;20086;-76
2021/05/09 08:02:51;;;;;;;2.85;2.10;;;;;;;29.29;26.52;100565.28;5074779;28;20044;-76
2021/05/09 08:05:19;;;;;;;3.53;2.15;;;;;;;29.10;27.08;100566.63;5075737;28;20028;-75
2021/05/09 08:07:55;;;;;;;3.15;2.25;;;;;;;28.69;27.53;100561.13;5074186;28;20055;-75
2021/05/09 08:10:26;;;;;;;3.35;2.08;;;;;;;29.40;26.24;100556.97;5074470;28;20486;-75
2021/05/09 08:12:52;;;;;;;2.90;2.28;;;;;;;29.34;26.50;100558.09;5074163;28;20044;-77
2021/05/09 08:15:21;;;;;;;3.88;2.35;;;;;;;29.71;26.80;100556.66;5057209;28;20132;-78
2021/05/09 08:17:46;;;;;;;4.43;2.97;;;;;;;30.09;26.80;100555.13;5075385;28;20044;-78
2021/05/09 08:20:13;;;;;;;5.00;2.70;;;;;;;29.49;26.39;100564.72;5073289;28;20051;-76
2021/05/09 08:22:39;;;;;;;3.03;2.78;;;;;;;29.02;27.74;100557.56;5073991;28;20025;-76
2021/05/09 08:25:09;;;;;;;5.07;2.80;;;;;;;28.86;28.15;100558.69;5074045;28;20082;-76
2021/05/09 08:27:34;;;;;;;4.47;3.38;;;;;;;28.28;29.22;100562.53;5074172;28;20017;-75
2021/05/09 08:30:02;;;;;;;3.47;3.10;;;;;;;27.75;30.45;100559.13;5078765;22;20049;-78
2021/05/09 08:32:27;;;;;;;2.80;2.55;;;;;;;28.50;29.76;100561.59;5035287;28;20080;-74
2021/05/09 08:34:54;;;;;;;4.15;2.95;;;;;;;28.72;29.78;100553.66;5018803;28;20452;-76
2021/05/09 08:37:20;;;;;;;5.72;3.30;;;;;;;28.52;31.30;100571.31;5013443;28;20037;-75
2021/05/09 08:39:49;;;;;;;5.47;3.30;;;;;;;28.92;29.45;100568.25;5016759;28;20033;-74
2021/05/09 08:42:18;;;;;;;5.90;2.97;;;;;;;29.96;28.29;100581.22;5033172;28;20087;-74
2021/05/09 08:44:48;;;;;;;4.32;2.50;;;;;;;29.62;28.54;100579.66;5027260;28;20475;-74
2021/05/09 08:47:20;;;;;;;4.25;2.50;;;;;;;29.99;28.65;100580.25;5024262;28;20038;-74
2021/05/09 08:49:47;;;;;;;2.20;2.00;;;;;;;30.46;27.99;100578.63;4998815;28;20353;-74
2021/05/09 08:52:17;;;;;;;4.30;2.28;;;;;;;30.60;27.13;100582.03;5013664;28;20468;-74
2021/05/09 08:54:44;;;;;;;3.10;2.00;;;;;;;30.19;27.67;100576.75;5014799;28;20488;-74
2021/05/09 08:57:12;;;;;;;4.47;2.42;;;;;;;29.93;28.11;100584.25;5013578;28;20452;-74
2021/05/09 08:59:38;;;;;;;5.47;2.40;;;;;;;30.25;27.61;100576.88;5014024;28;20532;-75
2021/05/09 09:02:04;;;;;;;3.28;2.20;;;;;;;30.42;27.20;100565.75;5032887;28;20129;-74
2021/05/09 09:04:51;;;;;;;3.10;2.20;;;;;;;30.40;26.68;100574.06;5033630;28;20474;-74
2021/05/09 09:07:16;;;;;;;4.78;1.65;;;;;;;30.24;27.45;100566.69;5034391;28;20022;-74
2021/05/09 09:09:45;;;;;;;1.70;1.60;;;;;;;30.65;26.85;100562.03;5032373;28;20049;-76
2021/05/09 09:12:13;;;;;;;2.15;1.77;;;;;;;30.87;25.64;100567.41;5014507;28;20026;-74
2021/05/09 09:15:02;;;;;;;2.65;1.90;;;;;;;31.25;24.69;100563.66;5032752;28;20025;-74
2021/05/09 09:17:28;;;;;;;1.67;1.50;;;;;;;31.15;25.00;100562.16;5032828;28;20132;-74
2021/05/09 09:20:10;;;;;;;1.70;1.30;;;;;;;31.19;24.79;100554.13;5032003;28;20483;-75
2021/05/09 09:22:57;;;;;;;4.30;1.75;;;;;;;30.99;25.32;100565.53;5032847;28;20051;-74
2021/05/09 09:25:34;;;;;;;3.70;2.08;;;;;;;30.46;25.68;100560.59;5033619;28;20080;-76
2021/05/09 09:28:03;;;;;;;2.38;1.85;;;;;;;30.85;25.41;100563.47;5032795;28;20037;-74
2021/05/09 09:30:48;;;;;;;3.17;1.48;;;;;;;31.19;24.93;100554.13;5032195;28;20407;-74
2021/05/09 09:33:17;;;;;;;2.63;1.77;;;;;;;30.44;26.66;100563.97;5031580;28;20030;-75
2021/05/09 09:35:45;;;;;;;3.03;1.60;;;;;;;30.40;26.29;100557.63;5027887;28;20034;-75
2021/05/09 09:38:28;;;;;;;2.03;1.75;;;;;;;30.36;26.89;100564.84;5032772;28;20056;-75
2021/05/09 09:41:16;;;;;;;1.92;1.73;;;;;;;30.40;26.56;100562.56;5033531;28;20033;-74
2021/05/09 09:44:07;;;;;;;2.65;1.65;;;;;;;30.57;26.97;100557.16;5032068;28;20045;-74
2021/05/09 09:46:34;;;;;;;1.60;1.50;;;;;;;31.13;26.44;100561.88;5032730;28;20071;-76
2021/05/09 09:49:04;;;;;;;4.43;1.90;;;;;;;30.46;27.67;100549.13;5033246;28;20026;-75
2021/05/09 09:51:47;;;;;;;2.33;1.95;;;;;;;30.27;27.54;100560.78;5033102;28;20033;-76
2021/05/09 09:54:31;;;;;;;5.97;1.70;;;;;;;30.56;26.95;100559.22;5032072;28;20057;-75
2021/05/09 09:56:57;;;;;;;3.30;1.77;;;;;;;31.27;26.01;100546.72;5031756;28;20040;-76
2021/05/09 09:59:28;;;;;;;3.97;1.80;;;;;;;30.48;26.43;100552.31;5030875;28;20105;-76
2021/05/09 10:01:55;;;;;;;2.75;2.20;;;;;;;30.55;27.76;100551.91;5030037;28;20055;-75
2021/05/09 10:04:21;;;;;;;4.38;2.35;;;;;;;30.06;27.72;100536.03;5032756;28;20475;-76
2021/05/09 10:06:47;;;;;;;1.80;1.55;;;;;;;30.75;26.71;100526.22;5032344;28;20108;-74
2021/05/09 10:09:12;;;;;;;3.50;2.80;;;;;;;30.53;27.24;100540.13;5032897;28;20060;-75
2021/05/09 10:11:39;;;;;;;2.05;1.85;;;;;;;31.06;26.53;100545.03;5031508;28;20396;-74
2021/05/09 10:14:06;;;;;;;6.00;2.00;;;;;;;31.08;26.58;100542.44;5031920;28;20036;-78
2021/05/09 10:16:42;;;;;;;2.72;2.30;;;;;;;31.08;26.32;100533.81;5032056;28;20112;-81
2021/05/09 10:19:13;;;;;;;2.70;1.90;;;;;;;31.58;25.71;100530.97;5031629;28;20058;-81
2021/05/09 10:21:42;;;;;;;2.88;2.00;;;;;;;30.95;27.99;100519.00;5031403;28;20036;-81
2021/05/09 10:24:14;;;;;;;3.88;2.55;;;;;;;29.95;28.36;100528.00;5031441;28;20053;-80
2021/05/09 10:27:06;;;;;;;1.10;1.10;;;;;;;30.27;27.43;100520.59;5031891;28;20116;-80
2021/05/09 10:29:41;;;;;;;3.35;1.00;;;;;;;30.15;24.74;100518.78;5035438;28;20940;-82
2021/05/09 10:32:10;;;;;;;3.08;1.58;;;;;;;29.59;29.18;100491.75;5034971;28;20048;-81
2021/05/09 10:34:54;;;;;;;2.78;1.60;;;;;;;29.62;29.15;100516.59;5035024;28;20032;-81
2021/05/09 10:37:42;;;;;;;3.25;1.35;;;;;;;30.02;26.26;100503.88;5034739;28;20031;-76
2021/05/09 10:40:36;;;;;;;2.08;1.50;;;;;;;30.15;25.66;100487.22;5034529;28;20040;-75
2021/05/09 10:43:05;;;;;;;3.33;1.30;;;;;;;29.29;27.83;100490.75;5034614;28;20419;-77
2021/05/09 10:45:33;;;;;;;2.75;1.40;;;;;;;29.13;29.13;100502.63;5038544;28;20060;-76
2021/05/09 10:48:31;;;;;;;2.42;1.48;;;;;;;29.42;28.77;100508.53;5056695;28;20035;-77
2021/05/09 10:51:02;;;;;;;3.78;1.65;;;;;;;29.30;29.33;100508.78;5057255;28;20116;-77
2021/05/09 10:53:37;;;;;;;5.50;2.13;;;;;;;28.74;30.86;100501.63;5038818;28;20032;-75
2021/05/09 10:56:03;;;;;;;3.88;1.80;;;;;;;29.25;29.80;100492.25;5056360;28;20040;-76
2021/05/09 10:58:47;;;;;;;4.03;1.77;;;;;;;28.95;29.40;100500.63;5056267;28;20024;-79
2021/05/09 11:01:37;;;;;;;3.20;2.10;;;;;;;29.52;30.40;100506.44;5038951;28;20430;-76
2021/05/09 11:04:05;;;;;;;3.30;2.22;;;;;;;28.68;30.74;100502.28;5056253;28;20104;-78
2021/05/09 11:06:41;;;;;;;3.63;1.70;;;;;;;29.14;28.57;100501.38;5038794;28;20033;-77
2021/05/09 11:09:14;;;;;;;1.08;1.08;;;;;;;28.91;28.92;100497.09;5038913;28;20024;-76
2021/05/09 11:11:39;;;;;;;2.58;2.08;;;;;;;28.20;31.83;100501.19;5038282;28;20033;-75
2021/05/09 11:14:07;;;;;;;3.08;1.95;;;;;;;28.23;31.25;100476.53;5038310;28;20032;-75
2021/05/09 11:16:38;;;;;;;2.17;1.50;;;;;;;28.88;30.57;100493.16;5037934;28;20061;-74
2021/05/09 11:19:12;;;;;;;1.85;1.50;;;;;;;28.75;29.98;100500.34;5038307;28;20032;-74
2021/05/09 11:21:46;;;;;;;1.98;1.40;;;;;;;28.84;29.93;100491.72;5038193;28;20540;-75
2021/05/09 11:24:19;;;;;;;2.50;1.40;;;;;;;29.19;29.53;100500.69;5038122;28;20084;-77
2021/05/09 11:26:49;;;;;;;3.47;1.52;;;;;;;29.30;31.01;100505.91;5038084;28;20029;-76
2021/05/09 11:29:18;;;;;;;1.30;1.20;;;;;;;28.63;30.81;100482.88;5037675;28;20063;-75
2021/05/09 11:31:49;;;;;;;1.50;1.27;;;;;;;28.49;30.18;100489.25;5038012;28;20033;-75